Latest Weather Observations for Thredbo Top Station

IDN60801

Issued at 7:53 pm EDT Monday 5 December 2022 (issued every 10 minutes, with the page automatically refreshed every 10 minutes)

About weather observations | Map of weather stations | Latest weather observations for NSW | Other Formats
Station Details ID: 071032 Name: THREDBO AWS Lat: -36.49 Lon: 148.29 Height: 1957.0 m
Data from the previous 72 hours. | See also: Recent months at Thredbo Top Station
Date/Time
EDT
Temp
°C
App
Temp
°C
Dew
Point
°C
Rel
Hum
%
Delta-T
°C
Wind Press
QNH
hPa
Press
MSL
hPa
Rain since
9am
mm
Dir  Spd
km/h
Gust
km/h
Spd
kts
Gust
kts
05/07:30pm 8.1 3.1 6.4 89 0.9 NW 22 32 12 17 - - 7.0
05/07:00pm 8.1 1.2 6.4 89 0.9 NW 32 43 17 23 - - 7.0
05/06:30pm 8.5 0.9 5.8 83 1.4 NW 35 50 19 27 - - 7.0
05/06:00pm 8.6 1.2 6.6 87 1.0 NW 35 54 19 29 - - 7.0
05/05:35pm 8.4 1.1 7.0 91 0.7 NW 35 54 19 29 - - 7.0
05/05:30pm 8.4 0.3 7.0 91 0.7 NW 39 50 21 27 - - 7.0
05/05:10pm 8.8 2.0 7.6 92 0.6 NW 33 52 18 28 - - 7.0
05/05:00pm 8.7 0.2 6.8 88 1.0 NW 41 54 22 29 - - 7.0
05/04:30pm 8.5 -0.8 5.8 83 1.4 NW 44 63 24 34 - - 7.0
05/04:06pm 8.3 -0.8 5.9 85 1.2 NNW 43 61 23 33 - - 7.0
05/04:00pm 8.3 -1.4 5.9 85 1.2 NNW 46 61 25 33 - - 7.0
05/03:30pm 8.3 -1.3 6.1 86 1.1 NNW 46 59 25 32 - - 7.0
05/03:03pm 7.8 -0.3 5.4 85 1.2 NW 37 56 20 30 - - 7.0
05/03:00pm 7.8 -0.8 4.9 82 1.4 NW 39 54 21 29 - - 7.0
05/02:55pm 7.9 -0.9 5.5 85 1.2 NW 41 59 22 32 - - 7.0
05/02:36pm 7.8 0.3 6.4 91 0.7 NW 35 54 19 29 - - 6.6
05/02:30pm 7.3 -0.6 6.4 94 0.5 WNW 37 56 20 30 - - 6.6
05/02:18pm 8.1 1.6 6.6 90 0.8 WNW 30 56 16 30 - - 3.4
05/02:12pm 8.6 2.7 7.7 94 0.5 NW 28 43 15 23 - - 2.0
05/02:00pm 9.4 0.9 7.0 85 1.3 NW 41 54 22 29 - - 0.0
05/01:43pm 10.2 3.2 6.7 79 1.8 NW 33 54 18 29 - - 0.0
05/01:30pm 10.8 4.4 7.1 78 2.0 NW 30 44 16 24 - - 0.0
05/01:02pm 12.4 5.6 7.7 73 2.6 NW 33 52 18 28 - - 0.0
05/01:00pm 12.2 5.1 8.1 76 2.2 WNW 35 52 19 28 - - 0.0
05/12:30pm 11.7 4.5 7.8 77 2.1 WNW 35 54 19 29 - - 0.0
05/12:12pm 12.0 5.5 8.1 77 2.1 NW 32 50 17 27 - - 0.0
05/12:00pm 12.5 5.9 8.6 77 2.2 NW 33 50 18 27 - - 0.0
05/11:30am 13.3 6.7 9.9 80 1.9 NW 35 50 19 27 - - 0.0
05/11:00am 12.2 3.6 8.9 80 1.8 NW 44 65 24 35 - - 0.0
05/10:41am 10.7 0.7 7.8 82 1.6 NW 50 69 27 37 - - 0.0
05/10:30am 10.8 -0.4 7.7 81 1.7 NW 56 70 30 38 - - 0.0
05/10:12am 10.2 -1.2 6.9 80 1.7 NW 56 74 30 40 - - 0.0
05/10:00am 10.3 -1.0 7.0 80 1.7 NW 56 72 30 39 - - 0.0
05/09:43am 10.7 -1.4 6.3 74 2.3 NNW 59 78 32 42 - - 0.0
05/09:30am 11.1 -0.1 5.8 70 2.8 NNW 54 67 29 36 - - 0.0
05/09:00am 10.5 -0.2 6.6 77 2.1 NNW 52 70 28 38 - - 0.0
05/08:35am 10.8 1.3 6.6 75 2.2 NNW 46 65 25 35 - - 0.0
05/08:30am 10.6 1.0 6.4 75 2.2 NNW 46 63 25 34 - - 0.0
05/08:07am 10.5 1.5 6.6 77 2.1 NNW 43 61 23 33 - - 0.0
05/08:00am 10.7 1.2 6.6 76 2.2 NNW 46 59 25 32 - - 0.0
05/07:34am 10.2 0.8 7.1 81 1.6 NNW 46 65 25 35 - - 0.0
05/07:30am 10.4 1.4 7.1 80 1.8 NNW 44 57 24 31 - - 0.0
05/07:02am 10.7 2.6 7.2 79 1.9 NNW 39 57 21 31 - - 0.0
05/07:00am 10.7 3.0 7.2 79 1.9 NNW 37 48 20 26 - - 0.0
05/06:30am 11.2 2.3 6.9 75 2.3 NW 43 54 23 29 - - 0.0
05/06:28am 11.0 1.9 6.7 75 2.3 NW 44 56 24 30 - - 0.0
05/06:00am 11.0 -1.4 6.7 75 2.3 WNW 61 85 33 46 - - 0.0
05/05:54am 11.0 -0.4 6.9 76 2.2 NW 56 83 30 45 - - 0.0
05/05:36am 10.4 1.4 7.3 81 1.7 NW 44 63 24 34 - - 0.0
05/05:30am 10.4 1.0 7.3 81 1.7 NW 46 61 25 33 - - 0.0
05/05:06am 10.5 -0.3 7.7 83 1.5 NNW 54 72 29 39 - - 0.0
05/05:00am 10.5 0.5 7.9 84 1.4 NNW 50 65 27 35 - - 0.0
05/04:30am 10.0 1.3 7.9 87 1.1 NNW 43 54 23 29 - - 0.0
05/04:00am 10.4 1.7 7.6 83 1.5 NNW 43 52 23 28 1014.4 1007.1 0.0
05/03:30am 11.0 3.8 7.5 79 1.9 NW 35 43 19 23 1015.4 1008.1 0.0
05/03:00am 11.1 3.1 7.6 79 1.9 NW 39 48 21 26 1015.3 1008.0 0.0
05/02:30am 11.0 4.4 7.7 80 1.8 NW 32 46 17 25 1015.6 1008.3 0.0
05/02:00am 11.1 5.4 6.8 75 2.3 NW 26 37 14 20 1016.5 1009.2 0.0
05/01:30am 11.3 5.3 7.0 75 2.3 NW 28 35 15 19 1017.0 1009.7 0.0
05/01:00am 11.1 5.6 7.4 78 2.0 NW 26 33 14 18 1017.3 1010.1 0.0
05/12:30am 11.6 4.2 6.9 73 2.5 WNW 35 43 19 23 1017.6 1010.3 0.0
05/12:00am 11.3 4.5 7.0 75 2.3 WNW 32 43 17 23 1018.0 1010.8 0.0
 
Date/Time
EDT
Temp
°C
App
Temp
°C
Dew
Point
°C
Rel
Hum
%
Delta-T
°C
Wind Press
QNH
hPa
Press
MSL
hPa
Rain since
9am
mm
Dir  Spd
km/h
Gust
km/h
Spd
kts
Gust
kts
04/11:30pm 11.1 5.6 7.6 79 1.9 WNW 26 33 14 18 1018.7 1011.5 0.0
04/11:00pm 11.0 6.7 7.7 80 1.8 WNW 20 30 11 16 1019.1 1012.0 0.0
04/10:30pm 11.2 7.1 8.6 84 1.4 WNW 20 28 11 15 1019.7 1012.6 0.0
04/10:00pm 11.2 6.1 9.3 88 1.1 NW 26 33 14 18 1019.7 1012.6 0.0
04/09:30pm 11.7 6.3 9.6 87 1.2 NW 28 39 15 21 1019.5 1012.4 0.0
04/09:00pm 12.0 5.2 9.4 84 1.5 NW 35 41 19 22 1019.0 1011.9 0.0
04/08:30pm 12.4 5.2 9.1 80 1.8 NW 37 43 20 23 1019.0 1011.9 0.0
04/08:00pm 12.4 5.9 9.1 80 1.8 NW 33 41 18 22 1018.9 1011.7 0.0
04/07:30pm 12.8 8.1 9.1 78 2.1 NW 24 32 13 17 1019.6 1012.5 0.0
04/07:00pm 13.3 8.3 9.5 78 2.1 NNW 26 33 14 18 1019.6 1012.5 0.0
04/06:30pm 13.6 7.9 9.8 78 2.2 NNW 30 35 16 19 1019.4 1012.2 0.0
04/06:00pm 13.3 7.6 9.9 80 1.9 NNW 30 33 16 18 1019.4 1012.2 0.0
04/05:30pm 12.7 7.2 9.0 78 2.1 N 28 33 15 18 1019.4 1012.2 0.0
04/05:00pm 14.6 8.8 9.6 72 2.9 N 30 37 16 20 1019.5 1012.4 0.0
04/04:30pm 16.5 11.8 10.8 69 3.4 NW 26 32 14 17 1019.9 1012.7 0.0
04/04:00pm 17.0 13.7 11.5 70 3.3 WNW 20 32 11 17 1020.1 1013.0 0.0
04/03:30pm 17.0 12.9 7.9 55 5.1 SW 19 26 10 14 1020.4 1013.2 0.0
04/03:00pm 17.0 13.1 8.7 58 4.7 WSW 19 30 10 16 1020.6 1013.5 0.0
04/02:30pm 17.2 14.2 7.8 54 5.3 W 13 24 7 13 1021.0 1013.9 0.0
04/02:00pm 17.8 15.0 9.9 60 4.6 WSW 15 24 8 13 1021.3 1014.2 0.0
04/01:30pm 17.0 14.7 7.4 53 5.3 SW 9 20 5 11 1021.7 1014.6 0.0
04/01:00pm 15.2 12.5 7.5 60 4.2 SW 11 33 6 18 1022.0 1015.0 0.0
04/12:30pm 16.2 13.3 9.8 66 3.7 SW 15 24 8 13 1022.2 1015.1 0.0
04/12:00pm 14.5 11.0 7.1 61 4.0 SW 15 28 8 15 1022.4 1015.4 0.0
04/11:30am 14.2 10.5 6.3 59 4.2 SSW 15 28 8 15 1022.8 1015.8 0.0
04/11:00am 15.5 13.0 9.8 69 3.3 SW 13 26 7 14 1022.8 1015.8 0.0
04/10:30am 14.6 10.8 7.6 63 3.8 SW 17 30 9 16 1022.9 1015.9 0.0
04/10:00am 13.7 8.6 5.8 59 4.2 SSW 22 33 12 18 1022.9 1015.9 0.0
04/09:30am 13.4 9.7 7.8 69 3.1 SSW 17 30 9 16 1023.1 1016.1 0.0
04/09:00am 12.3 8.7 8.4 77 2.1 SW 17 22 9 12 1023.4 1016.4 0.0
04/08:30am 12.6 10.7 10.5 87 1.2 SW 11 20 6 11 1023.3 1016.3 0.0
04/08:00am 11.4 8.8 9.3 87 1.2 SW 13 20 7 11 1023.1 1016.1 0.0
04/07:30am 11.9 10.2 10.0 88 1.1 W 9 17 5 9 1022.8 1015.8 0.0
04/07:00am 11.0 8.4 9.4 90 0.9 W 13 20 7 11 1022.4 1015.4 0.0
04/06:30am 10.5 7.8 8.9 90 0.9 W 13 22 7 12 1022.3 1015.3 0.0
04/06:00am 9.3 5.8 7.4 88 1.0 W 15 20 8 11 1022.3 1015.3 0.0
04/05:30am 8.1 4.8 6.4 89 0.9 WNW 13 19 7 10 1022.0 1015.0 0.0
04/05:00am 8.0 3.9 6.1 88 1.0 WNW 17 20 9 11 1021.9 1014.9 0.0
04/04:30am 8.3 4.2 6.3 87 1.0 WNW 17 20 9 11 1021.8 1014.7 0.0
04/04:00am 8.6 4.6 6.6 87 1.0 WNW 17 19 9 10 1021.9 1014.9 0.0
04/03:30am 9.2 5.5 6.5 83 1.4 W 15 19 8 10 1022.0 1015.0 0.0
04/03:00am 9.4 5.8 6.7 83 1.4 W 15 19 8 10 1022.2 1015.1 0.0
04/02:30am 9.8 6.5 6.5 80 1.7 W 13 15 7 8 1022.4 1015.4 0.0
04/02:00am 9.7 6.4 6.6 81 1.6 W 13 17 7 9 1022.5 1015.5 0.0
04/01:30am 8.8 5.9 6.3 84 1.3 WSW 11 13 6 7 1022.8 1015.8 0.0
04/01:00am 7.3 5.9 5.6 89 0.9 NW 2 9 1 5 1023.0 1016.0 0.0
04/12:30am 7.4 4.7 5.7 89 0.9 NW 9 11 5 6 1023.1 1016.1 0.0
04/12:00am 6.4 3.0 5.7 95 0.4 NNW 13 17 7 9 1023.4 1016.4 0.0
 
Date/Time
EDT
Temp
°C
App
Temp
°C
Dew
Point
°C
Rel
Hum
%
Delta-T
°C
Wind Press
QNH
hPa
Press
MSL
hPa
Rain since
9am
mm
Dir  Spd
km/h
Gust
km/h
Spd
kts
Gust
kts
03/11:30pm 6.8 3.0 5.9 94 0.5 NNW 15 17 8 9 1023.4 1016.4 0.0
03/11:00pm 7.2 4.3 6.3 94 0.5 N 11 13 6 7 1023.5 1016.5 0.0
03/10:30pm 7.7 5.1 6.2 90 0.8 NNE 9 13 5 7 1023.6 1016.6 0.0
03/10:00pm 8.9 5.7 6.7 86 1.1 NE 13 19 7 10 1023.6 1016.6 0.0
03/09:30pm 10.0 7.0 7.6 85 1.3 ENE 13 19 7 10 1023.6 1016.6 0.0
03/09:00pm 11.1 9.2 7.4 78 2.0 SE 7 15 4 8 1023.4 1016.4 0.0
03/08:30pm 11.2 9.2 7.1 76 2.2 SE 7 17 4 9 1023.3 1016.3 0.0
03/08:00pm 11.4 9.0 7.1 75 2.3 SSE 9 19 5 10 1023.1 1016.1 0.0
03/07:30pm 12.0 9.3 7.5 74 2.4 SSE 11 17 6 9 1023.0 1016.0 0.0
03/07:00pm 12.3 9.7 7.6 73 2.5 S 11 17 6 9 1022.9 1015.9 0.0
03/06:30pm 12.1 10.1 7.2 72 2.6 S 7 15 4 8 1022.7 1015.6 0.0
03/06:00pm 13.1 10.0 7.3 68 3.1 S 13 24 7 13 1022.4 1015.4 0.0
03/05:30pm 14.3 10.6 7.8 65 3.6 S 17 26 9 14 1022.4 1015.4 0.0
03/05:00pm 14.5 10.9 8.2 66 3.5 S 17 24 9 13 1022.4 1015.4 0.0
03/04:30pm 14.3 10.5 8.9 70 3.0 S 19 24 10 13 1022.4 1015.4 0.0
03/04:00pm 13.2 10.1 8.7 74 2.5 S 15 20 8 11 1022.5 1015.5 0.0
03/03:30pm 14.0 11.0 9.2 73 2.7 S 15 26 8 14 1022.7 1015.6 0.0
03/03:00pm 13.7 10.7 9.2 74 2.5 SSW 15 20 8 11 1022.8 1015.8 0.0
03/02:30pm 13.6 10.1 8.9 73 2.6 S 17 26 9 14 1022.9 1015.9 0.0
03/02:00pm 13.4 9.0 7.4 67 3.3 SSW 20 30 11 16 1023.1 1016.1 0.0
03/01:30pm 13.1 8.2 6.7 65 3.4 SSW 22 32 12 17 1023.3 1016.3 0.0
03/01:00pm 13.9 10.3 8.5 70 3.0 SSW 17 24 9 13 1023.4 1016.4 0.0
03/12:30pm 13.0 9.1 7.0 67 3.2 SSW 17 30 9 16 1023.6 1016.6 0.0
03/12:00pm 12.5 8.2 7.0 69 2.9 SSW 19 28 10 15 1023.5 1016.5 0.0
03/11:30am 11.9 8.0 7.2 73 2.5 SSW 17 30 9 16 1023.6 1016.6 0.0
03/11:00am 11.6 7.4 8.1 79 1.9 SSW 20 32 11 17 1023.6 1016.6 0.0
03/10:30am 10.9 4.1 6.8 76 2.2 SW 32 43 17 23 1023.4 1016.4 0.0
03/10:00am 10.7 3.3 6.6 76 2.2 SW 35 44 19 24 1023.4 1016.4 0.0
03/09:30am 10.2 3.3 6.5 78 1.9 WSW 32 43 17 23 1023.4 1016.4 0.0
03/09:00am 10.1 3.0 6.3 77 2.0 WSW 33 46 18 25 1023.3 1016.3 0.0
03/08:30am 9.9 4.1 6.3 78 1.9 WSW 26 35 14 19 1023.1 1016.1 0.0
03/08:00am 8.7 2.3 6.8 88 1.0 W 30 37 16 20 1022.7 1015.6 0.0
03/07:30am 8.4 2.5 7.3 93 0.6 W 28 39 15 21 1022.4 1015.4 0.0
03/07:00am 8.2 1.4 7.1 93 0.6 W 32 41 17 22 1021.9 1014.9 0.0
03/06:30am 7.9 1.5 7.0 94 0.5 W 30 41 16 22 1021.7 1014.6 0.0
03/06:00am 7.4 1.3 6.7 95 0.4 W 28 39 15 21 1021.4 1014.4 0.0
03/05:30am 7.3 0.8 6.6 95 0.4 W 30 39 16 21 1021.2 1014.1 0.0
03/05:00am 7.2 1.1 6.5 95 0.4 W 28 39 15 21 1021.0 1013.9 0.0
03/04:30am 7.2 1.1 6.6 96 0.3 WNW 28 35 15 19 1020.7 1013.6 0.0
03/04:00am 7.4 1.3 6.5 94 0.5 WNW 28 37 15 20 1020.7 1013.6 0.0
03/03:30am 7.4 0.4 6.0 91 0.7 WNW 32 39 17 21 1020.7 1013.6 0.0
03/03:00am 7.6 0.5 5.6 87 1.0 W 32 41 17 22 1020.7 1013.6 0.0
03/02:30am 6.8 -0.2 6.2 96 0.3 WNW 32 39 17 21 1020.7 1013.6 0.0
03/02:00am 6.9 -0.2 6.6 98 0.2 WNW 33 43 18 23 1020.8 1013.7 0.0
03/01:30am 7.1 -0.4 6.5 96 0.3 WNW 35 44 19 24 1021.2 1014.1 0.0
03/01:00am 7.2 -0.2 6.8 97 0.2 WNW 35 43 19 23 1021.3 1014.2 0.0
03/12:30am 7.1 0.5 6.0 93 0.6 NW 30 39 16 21 1021.6 1014.5 0.0
03/12:00am 7.4 2.7 5.9 90 0.8 WNW 20 32 11 17 1022.0 1015.0 0.0
 
Date/Time
EDT
Temp
°C
App
Temp
°C
Dew
Point
°C
Rel
Hum
%
Delta-T
°C
Wind Press
QNH
hPa
Press
MSL
hPa
Rain since
9am
mm
Dir  Spd
km/h
Gust
km/h
Spd
kts
Gust
kts
02/11:30pm 7.5 4.2 6.3 92 0.6 WNW 13 22 7 12 1022.3 1015.3 0.0
02/11:00pm 7.7 3.7 6.8 94 0.5 NW 17 24 9 13 1022.3 1015.3 0.0
02/10:30pm 4.1 1.7 2.1 87 0.9 NNW 4 9 2 5 1022.7 1015.6 0.0
02/10:00pm 4.9 3.0 2.9 87 0.9 NNW 2 4 1 2 1022.7 1015.6 0.0
02/09:30pm 5.9 3.7 3.1 82 1.3 NW 4 6 2 3 1022.5 1015.5 0.0
02/09:00pm 6.6 5.1 3.2 79 1.6 CALM 0 2 0 1 1022.4 1015.4 0.0
02/08:30pm 7.8 6.5 4.0 77 1.9 CALM 0 0 0 0 1022.4 1015.4 0.0
02/08:00pm 8.2 6.9 3.9 74 2.1 CALM 0 2 0 1 1022.3 1015.3 0.0

Other formats

Comma delimited format used in spreadsheet applications
http://www.bom.gov.au/fwo/IDN60801/IDN60801.95909.axf

JavaScript Object Notation format (JSON) in row-major order
http://www.bom.gov.au/fwo/IDN60801/IDN60801.95909.json

Data quality

Most of these data are generated automatically and are frequently updated. Quality checks on data are not normally performed. It is possible for incorrect values to appear. Refer to information at About Latest Weather Observations and please check the disclaimer before using these data.